Terminal Aerodrome Forecast
Issued by NWS

Home | Current Version | Previous Version | Text Only | Print | Product List | Glossary On
Versions: 1 2 3 4 5 6 7 8 9 10 11 12
000
FTUS43 KDLH 280200 AAA
TAFBRD
TAF AMD
KBRD 280211Z 2802/2824 29007KT P6SM BKN025 OVC050
      TEMPO 2802/2806 -SN OVC015
     FM280600 31008KT P6SM -SN BKN015 OVC030
     FM281400 35011KT P6SM SCT030=

USA.gov is the U.S. government's official web portal to all federal, state and local government web resources and services.